createdAt,value
2022-11-19T00:01:55.311Z,-3.27
2022-11-19T00:04:27.444Z,-3.27
2022-11-19T00:07:01.385Z,-3.30
2022-11-19T00:09:32.470Z,-3.32
2022-11-19T00:12:21.397Z,-3.35
2022-11-19T00:14:53.097Z,-3.33
2022-11-19T00:17:24.833Z,-3.34
2022-11-19T00:19:55.912Z,-3.36
2022-11-19T00:22:28.183Z,-3.43
2022-11-19T00:25:01.288Z,-3.45
2022-11-19T00:27:32.982Z,-3.54
2022-11-19T00:30:10.936Z,-3.60
2022-11-19T00:32:38.117Z,-3.71
2022-11-19T00:35:10.989Z,-3.80
2022-11-19T00:37:42.523Z,-3.93
2022-11-19T00:40:13.710Z,-4.03
2022-11-19T00:42:46.222Z,-4.16
2022-11-19T00:45:17.360Z,-4.29
2022-11-19T00:47:48.669Z,-4.39
2022-11-19T00:50:20.158Z,-4.47
2022-11-19T00:52:51.913Z,-4.51
2022-11-19T00:55:23.070Z,-4.61
2022-11-19T00:57:54.260Z,-4.60
2022-11-19T01:00:25.508Z,-4.69
2022-11-19T01:02:57.763Z,-4.78
2022-11-19T01:05:28.516Z,-4.81
2022-11-19T01:07:59.979Z,-4.86
2022-11-19T01:10:31.309Z,-4.87
2022-11-19T01:13:20.549Z,-4.85
2022-11-19T01:15:52.341Z,-4.81
2022-11-19T01:18:24.184Z,-4.76
2022-11-19T01:20:55.613Z,-4.72
2022-11-19T01:23:26.560Z,-4.66
2022-11-19T01:25:58.601Z,-4.60
2022-11-19T01:28:31.686Z,-4.54
2022-11-19T01:31:04.684Z,-4.50
2022-11-19T01:33:36.090Z,-4.47
2022-11-19T01:36:08.418Z,-4.39
2022-11-19T01:38:47.625Z,-4.31
2022-11-19T01:41:18.708Z,-4.25
2022-11-19T01:43:52.187Z,-4.13
2022-11-19T01:46:32.031Z,-4.03
2022-11-19T01:49:04.805Z,-3.91
2022-11-19T01:51:39.977Z,-3.78
2022-11-19T01:54:12.908Z,-3.71
2022-11-19T01:56:44.024Z,-3.61
2022-11-19T01:59:17.471Z,-3.54
2022-11-19T02:01:49.276Z,-3.44
2022-11-19T02:04:22.465Z,-3.35
2022-11-19T02:06:55.683Z,-3.32
2022-11-19T02:09:28.273Z,-3.28
2022-11-19T02:12:15.795Z,-3.21
2022-11-19T02:14:59.947Z,-3.14
2022-11-19T02:17:36.536Z,-3.08
2022-11-19T02:20:08.985Z,-3.05
2022-11-19T02:22:44.386Z,-2.98
2022-11-19T02:25:20.049Z,-2.94
2022-11-19T02:27:58.530Z,-2.88
2022-11-19T02:30:30.728Z,-2.85
2022-11-19T02:33:09.681Z,-2.84
2022-11-19T02:35:45.647Z,-2.79
2022-11-19T02:38:21.203Z,-2.81
2022-11-19T02:40:53.725Z,-2.76
2022-11-19T02:43:39.067Z,-2.69
2022-11-19T02:46:11.543Z,-2.70
2022-11-19T02:48:49.115Z,-2.71
2022-11-19T02:51:20.869Z,-2.70
2022-11-19T02:53:53.684Z,-2.68
2022-11-19T02:56:26.243Z,-2.70
2022-11-19T02:59:15.723Z,-2.67
2022-11-19T03:02:07.987Z,-2.66
2022-11-19T03:04:39.061Z,-2.61
2022-11-19T03:07:17.574Z,-2.62
2022-11-19T03:09:58.998Z,-2.61
2022-11-19T03:12:50.015Z,-2.63
2022-11-19T03:15:44.694Z,-2.62
2022-11-19T03:18:17.371Z,-2.59
2022-11-19T03:20:55.779Z,-2.58
2022-11-19T03:23:28.101Z,-2.56
2022-11-19T03:26:03.876Z,-2.54
2022-11-19T03:28:36.133Z,-2.52
2022-11-19T03:31:07.840Z,-2.49
2022-11-19T03:33:40.624Z,-2.48
2022-11-19T03:36:14.881Z,-2.45
2022-11-19T03:38:47.700Z,-2.43
2022-11-19T03:41:20.130Z,-2.39
2022-11-19T03:43:57.979Z,-2.38
2022-11-19T03:46:32.516Z,-2.36
2022-11-19T03:49:04.939Z,-2.33
2022-11-19T03:51:44.010Z,-2.30
2022-11-19T03:54:15.494Z,-2.25
2022-11-19T03:56:48.053Z,-2.23
2022-11-19T03:59:22.482Z,-2.24
2022-11-19T04:01:53.742Z,-2.21
2022-11-19T04:04:37.848Z,-2.21
2022-11-19T04:07:11.050Z,-2.21
2022-11-19T04:09:42.411Z,-2.19
2022-11-19T04:12:15.170Z,-2.17
2022-11-19T04:14:47.160Z,-2.16
2022-11-19T04:17:18.972Z,-2.12
2022-11-19T04:19:50.288Z,-2.11
2022-11-19T04:22:23.850Z,-2.10
2022-11-19T04:24:54.795Z,-2.07
2022-11-19T04:27:26.247Z,-2.06
2022-11-19T04:29:57.476Z,-1.99
2022-11-19T04:32:30.091Z,-1.97
2022-11-19T04:35:01.413Z,-1.94
2022-11-19T04:37:35.829Z,-1.93
2022-11-19T04:40:07.848Z,-1.94
2022-11-19T04:42:38.918Z,-1.90
2022-11-19T04:45:10.989Z,-1.90
2022-11-19T04:47:42.352Z,-1.87
2022-11-19T04:50:15.120Z,-1.84
2022-11-19T04:52:46.692Z,-1.82
2022-11-19T04:55:17.944Z,-1.79
2022-11-19T04:57:54.440Z,-1.80
2022-11-19T05:00:26.394Z,-1.77
2022-11-19T05:03:00.714Z,-1.75
2022-11-19T05:05:32.460Z,-1.72
2022-11-19T05:08:04.643Z,-1.71
2022-11-19T05:10:36.885Z,-1.67
2022-11-19T05:13:08.435Z,-1.69
2022-11-19T05:15:39.627Z,-1.66
2022-11-19T05:18:11.231Z,-1.64
2022-11-19T05:20:42.224Z,-1.66
2022-11-19T05:23:14.187Z,-1.65
2022-11-19T05:25:47.611Z,-1.63
2022-11-19T05:28:32.767Z,-1.60
2022-11-19T05:30:57.533Z,-1.62
2022-11-19T05:33:33.822Z,-1.58
2022-11-19T05:36:02.361Z,-1.57
2022-11-19T05:38:35.507Z,-1.57
2022-11-19T05:41:06.919Z,-1.51
2022-11-19T05:43:37.832Z,-1.38
2022-11-19T05:46:09.057Z,-1.27
2022-11-19T05:48:40.414Z,-1.12
2022-11-19T05:51:13.203Z,-1.04
2022-11-19T05:53:44.980Z,-0.97
2022-11-19T05:56:16.030Z,-0.88
2022-11-19T05:58:47.089Z,-0.81
2022-11-19T06:01:19.367Z,-0.74
2022-11-19T06:03:50.335Z,-0.73
2022-11-19T06:06:22.189Z,-0.74
2022-11-19T06:08:53.781Z,-0.69
2022-11-19T06:11:42.591Z,-0.62
2022-11-19T06:14:25.471Z,-0.62
2022-11-19T06:17:03.998Z,-0.58
2022-11-19T06:19:38.248Z,-0.51
2022-11-19T06:22:10.239Z,-0.45
2022-11-19T06:24:41.535Z,-0.52
2022-11-19T06:27:12.609Z,-0.58
2022-11-19T06:29:43.902Z,-0.58
2022-11-19T06:32:15.857Z,-0.64
2022-11-19T06:34:47.057Z,-0.64
2022-11-19T06:37:18.439Z,-0.64
2022-11-19T06:39:54.469Z,-0.59
2022-11-19T06:42:37.969Z,-0.48
2022-11-19T06:45:11.260Z,-0.41
2022-11-19T06:47:43.042Z,-0.34
2022-11-19T06:50:14.361Z,-0.27
2022-11-19T06:52:45.831Z,-0.21
2022-11-19T06:55:16.785Z,-0.21
2022-11-19T06:57:48.166Z,-0.16
2022-11-19T07:00:19.523Z,-0.13
2022-11-19T07:02:50.728Z,-0.07
2022-11-19T07:05:25.251Z,-0.04
2022-11-19T07:08:01.579Z,-0.05
2022-11-19T07:10:29.911Z,-0.02
2022-11-19T07:13:02.447Z,0.03
2022-11-19T07:15:33.902Z,0.09
2022-11-19T07:18:07.458Z,0.17
2022-11-19T07:20:38.975Z,0.21
2022-11-19T07:23:12.060Z,0.24
2022-11-19T07:25:43.651Z,0.31
2022-11-19T07:28:16.236Z,0.30
2022-11-19T07:30:47.658Z,0.28
2022-11-19T07:33:20.869Z,0.24
2022-11-19T07:35:54.685Z,0.22
2022-11-19T07:38:25.807Z,0.21
2022-11-19T07:40:57.124Z,0.15
2022-11-19T07:43:28.336Z,0.16
2022-11-19T07:46:04.001Z,0.24
2022-11-19T07:48:35.849Z,0.22
2022-11-19T07:51:06.959Z,0.42
2022-11-19T07:53:38.292Z,0.55
2022-11-19T07:56:09.844Z,0.56
2022-11-19T07:58:45.934Z,0.52
2022-11-19T08:01:18.955Z,0.50
2022-11-19T08:03:56.587Z,0.51
2022-11-19T08:06:27.232Z,0.47
2022-11-19T08:08:58.601Z,0.45
2022-11-19T08:11:29.752Z,0.39
2022-11-19T08:14:03.507Z,0.35
2022-11-19T08:16:52.626Z,0.36
2022-11-19T08:19:23.836Z,0.32
2022-11-19T08:21:55.907Z,0.31
2022-11-19T08:24:27.733Z,0.34
2022-11-19T08:26:58.783Z,0.36
2022-11-19T08:29:30.894Z,0.42
2022-11-19T08:32:02.695Z,0.44
2022-11-19T08:34:34.475Z,0.50
2022-11-19T08:37:05.690Z,0.52
2022-11-19T08:39:37.100Z,0.51
2022-11-19T08:42:26.656Z,0.56
2022-11-19T08:44:58.932Z,0.57
2022-11-19T08:47:32.368Z,0.61
2022-11-19T08:50:03.749Z,0.63
2022-11-19T08:52:35.930Z,0.67
2022-11-19T08:55:08.574Z,0.66
2022-11-19T08:57:45.574Z,0.69
2022-11-19T09:00:18.295Z,0.75
2022-11-19T09:02:50.156Z,0.80
2022-11-19T09:05:30.992Z,0.84
2022-11-19T09:08:03.850Z,0.88
2022-11-19T09:10:38.249Z,0.86
2022-11-19T09:13:09.836Z,0.86
2022-11-19T09:15:42.375Z,0.85
2022-11-19T09:18:15.745Z,0.85
2022-11-19T09:20:47.276Z,0.79
2022-11-19T09:23:19.222Z,0.77
2022-11-19T09:25:59.218Z,0.82
2022-11-19T09:28:30.658Z,0.77
2022-11-19T09:31:05.394Z,0.69
2022-11-19T09:33:37.818Z,0.67
2022-11-19T09:36:10.121Z,0.66
2022-11-19T09:38:41.303Z,0.71
2022-11-19T09:41:20.779Z,0.69
2022-11-19T09:43:54.548Z,0.77
2022-11-19T09:46:26.935Z,0.99
2022-11-19T09:48:59.414Z,0.97
2022-11-19T09:51:32.116Z,0.95
2022-11-19T09:54:07.302Z,0.85
2022-11-19T09:56:40.173Z,0.81
2022-11-19T09:59:30.418Z,0.78
2022-11-19T10:02:01.392Z,0.70
2022-11-19T10:04:33.640Z,0.73
2022-11-19T10:07:09.101Z,0.82
2022-11-19T10:09:50.702Z,0.83
2022-11-19T10:12:35.091Z,0.72
2022-11-19T10:15:16.549Z,0.61
2022-11-19T10:18:03.566Z,0.60
2022-11-19T10:20:35.737Z,0.60
2022-11-19T10:23:24.605Z,0.63
2022-11-19T10:25:56.809Z,0.68
2022-11-19T10:28:29.191Z,0.70
2022-11-19T10:31:01.561Z,0.65
2022-11-19T10:33:33.953Z,0.62
2022-11-19T10:36:06.302Z,0.56
2022-11-19T10:38:41.889Z,0.57
2022-11-19T10:41:14.454Z,0.55
2022-11-19T10:43:48.476Z,0.60
2022-11-19T10:46:20.733Z,0.59
2022-11-19T10:48:56.070Z,0.58
2022-11-19T10:51:31.733Z,0.57
2022-11-19T10:54:04.200Z,0.53
2022-11-19T10:56:40.414Z,0.55
2022-11-19T10:59:12.875Z,0.57
2022-11-19T11:01:45.202Z,0.62
2022-11-19T11:04:23.651Z,0.66
2022-11-19T11:07:02.162Z,0.66
2022-11-19T11:09:34.592Z,0.68
2022-11-19T11:12:24.560Z,0.64
2022-11-19T11:14:57.053Z,0.60
2022-11-19T11:17:32.217Z,0.54
2022-11-19T11:20:07.762Z,0.51
2022-11-19T11:22:39.435Z,0.52
2022-11-19T11:25:23.984Z,0.53
2022-11-19T11:28:13.106Z,0.57
2022-11-19T11:31:03.052Z,0.58
2022-11-19T11:33:35.775Z,0.56
2022-11-19T11:36:08.371Z,0.53
2022-11-19T11:38:50.236Z,0.57
2022-11-19T11:44:02.926Z,0.45
2022-11-19T11:46:38.350Z,0.43
2022-11-19T11:49:12.890Z,0.46
2022-11-19T11:51:44.178Z,0.48
2022-11-19T11:54:19.059Z,0.50
2022-11-19T11:56:50.040Z,0.47
2022-11-19T11:59:28.362Z,0.46
2022-11-19T12:02:07.159Z,0.49
2022-11-19T12:04:38.425Z,0.47
2022-11-19T12:07:27.247Z,0.45
2022-11-19T12:10:03.729Z,0.49
2022-11-19T12:12:45.261Z,0.45
2022-11-19T12:15:23.730Z,0.38
2022-11-19T12:17:59.001Z,0.40
2022-11-19T12:20:46.343Z,0.40
2022-11-19T12:23:35.730Z,0.34
2022-11-19T12:26:17.248Z,0.29
2022-11-19T12:28:58.616Z,0.29
2022-11-19T12:31:30.956Z,0.25
2022-11-19T12:34:20.230Z,0.30
2022-11-19T12:36:59.075Z,0.28
2022-11-19T12:39:31.826Z,0.27
2022-11-19T12:42:07.147Z,0.27
2022-11-19T12:44:57.533Z,0.22
2022-11-19T12:47:30.150Z,0.23
2022-11-19T12:50:05.333Z,0.32
2022-11-19T12:52:38.016Z,0.23
2022-11-19T12:55:10.610Z,0.27
2022-11-19T12:57:49.189Z,0.18
2022-11-19T13:00:24.560Z,0.18
2022-11-19T13:02:57.273Z,0.15
2022-11-19T13:05:29.733Z,0.13
2022-11-19T13:08:02.171Z,0.10
2022-11-19T13:10:43.208Z,0.14
2022-11-19T13:13:15.977Z,0.11
2022-11-19T13:15:48.443Z,0.06
2022-11-19T13:18:20.675Z,0.05
2022-11-19T13:20:59.288Z,0.05
2022-11-19T13:23:31.926Z,0.07
2022-11-19T13:26:04.793Z,0.02
2022-11-19T13:28:37.460Z,0.02
2022-11-19T13:31:18.794Z,0.05
2022-11-19T13:33:51.238Z,0.08
2022-11-19T13:36:32.766Z,0.10
2022-11-19T13:39:18.001Z,0.08
2022-11-19T13:42:10.831Z,0.07
2022-11-19T13:44:41.873Z,0.08
2022-11-19T13:47:14.483Z,0.15
2022-11-19T13:49:47.058Z,0.15
2022-11-19T13:52:37.884Z,0.12
2022-11-19T13:55:10.180Z,0.17
2022-11-19T13:57:42.481Z,0.09
2022-11-19T14:00:24.138Z,0.04
2022-11-19T14:02:59.272Z,0.00
2022-11-19T14:05:43.715Z,0.09
2022-11-19T14:08:28.262Z,0.05
2022-11-19T14:11:00.669Z,0.01
2022-11-19T14:13:35.954Z,0.03
2022-11-19T14:16:37.945Z,0.04
2022-11-19T14:19:28.073Z,0.00
2022-11-19T14:22:17.685Z,0.00
2022-11-19T14:25:07.480Z,-0.02
2022-11-19T14:27:38.491Z,0.00
2022-11-19T14:30:10.579Z,0.00
2022-11-19T14:32:49.249Z,-0.06
2022-11-19T14:35:24.778Z,-0.05
2022-11-19T14:37:57.757Z,-0.08
2022-11-19T14:40:30.269Z,-0.03
2022-11-19T14:43:20.345Z,-0.05
2022-11-19T14:46:22.371Z,-0.02
2022-11-19T14:48:55.403Z,-0.06
2022-11-19T14:51:33.926Z,-0.08
2022-11-19T14:54:18.283Z,-0.11
2022-11-19T14:56:51.439Z,-0.10
2022-11-19T14:59:24.782Z,-0.13
2022-11-19T15:02:03.500Z,-0.12
2022-11-19T15:04:35.978Z,-0.15
2022-11-19T15:07:12.015Z,-0.15
2022-11-19T15:09:53.298Z,-0.13
2022-11-19T15:12:25.755Z,-0.14
2022-11-19T15:15:05.756Z,-0.12
2022-11-19T15:17:37.194Z,-0.19
2022-11-19T15:20:10.449Z,-0.23
2022-11-19T15:22:45.537Z,-0.22
2022-11-19T15:25:30.065Z,-0.22
2022-11-19T15:28:02.840Z,-0.19
2022-11-19T15:30:38.992Z,-0.26
2022-11-19T15:33:12.973Z,-0.30
2022-11-19T15:35:51.601Z,-0.28
2022-11-19T15:38:27.450Z,-0.29
2022-11-19T15:41:00.634Z,-0.26
2022-11-19T15:43:33.291Z,-0.27
2022-11-19T15:46:20.584Z,-0.23
2022-11-19T15:48:59.260Z,-0.27
2022-11-19T15:51:31.691Z,-0.30
2022-11-19T15:54:03.502Z,-0.30
2022-11-19T15:56:41.409Z,-0.26
2022-11-19T15:59:13.812Z,-0.20
2022-11-19T16:01:45.074Z,-0.24
2022-11-19T16:04:16.924Z,-0.25
2022-11-19T16:06:49.343Z,-0.27
2022-11-19T16:09:22.302Z,-0.30
2022-11-19T16:12:12.094Z,-0.29
2022-11-19T16:15:02.252Z,-0.27
2022-11-19T16:17:43.159Z,-0.25
2022-11-19T16:20:13.716Z,-0.15
2022-11-19T16:22:48.622Z,-0.20
2022-11-19T16:25:34.710Z,-0.20
2022-11-19T16:28:07.557Z,-0.25
2022-11-19T16:30:46.653Z,-0.22
2022-11-19T16:33:24.405Z,-0.27
2022-11-19T16:35:56.831Z,-0.28
2022-11-19T16:38:28.895Z,-0.31
2022-11-19T16:41:17.495Z,-0.29
2022-11-19T16:43:50.103Z,-0.28
2022-11-19T16:46:22.678Z,-0.31
2022-11-19T16:48:54.886Z,-0.30
2022-11-19T16:51:33.067Z,-0.30
2022-11-19T16:54:04.484Z,-0.31
2022-11-19T16:56:36.765Z,-0.28
2022-11-19T16:59:08.235Z,-0.30
2022-11-19T17:01:40.368Z,-0.29
2022-11-19T17:04:12.926Z,-0.30
2022-11-19T17:06:43.790Z,-0.30
2022-11-19T17:09:16.160Z,-0.27
2022-11-19T17:12:05.970Z,-0.29
2022-11-19T17:14:39.261Z,-0.32
2022-11-19T17:17:11.982Z,-0.30
2022-11-19T17:19:43.118Z,-0.30
2022-11-19T17:22:18.643Z,-0.29
2022-11-19T17:24:50.132Z,-0.28
2022-11-19T17:27:28.312Z,-0.30
2022-11-19T17:30:03.485Z,-0.28
2022-11-19T17:32:36.205Z,-0.27
2022-11-19T17:35:10.857Z,-0.30
2022-11-19T17:37:42.176Z,-0.26
2022-11-19T17:40:13.239Z,-0.25
2022-11-19T17:43:01.870Z,-0.26
2022-11-19T17:45:32.812Z,-0.22
2022-11-19T17:48:04.046Z,-0.24
2022-11-19T17:50:34.799Z,-0.22
2022-11-19T17:53:05.651Z,-0.22
2022-11-19T17:55:36.728Z,-0.20
2022-11-19T17:58:07.542Z,-0.20
2022-11-19T18:00:38.600Z,-0.10
2022-11-19T18:03:15.996Z,-0.16
2022-11-19T18:05:50.387Z,-0.15
2022-11-19T18:08:21.409Z,-0.18
2022-11-19T18:10:52.524Z,-0.16
2022-11-19T18:13:24.711Z,-0.15
2022-11-19T18:15:55.853Z,-0.15
2022-11-19T18:18:27.030Z,-0.12
2022-11-19T18:21:01.970Z,-0.15
2022-11-19T18:23:30.415Z,-0.17
2022-11-19T18:26:01.342Z,-0.17
2022-11-19T18:28:32.170Z,-0.15
2022-11-19T18:31:02.957Z,-0.16
2022-11-19T18:33:35.582Z,-0.19
2022-11-19T18:36:07.107Z,-0.19
2022-11-19T18:38:37.923Z,-0.18
2022-11-19T18:41:10.264Z,-0.19
2022-11-19T18:43:59.125Z,-0.16
2022-11-19T18:46:29.929Z,-0.21
2022-11-19T18:49:00.795Z,-0.20
2022-11-19T18:51:32.455Z,-0.19
2022-11-19T18:54:03.573Z,-0.17
2022-11-19T18:56:34.518Z,-0.19
2022-11-19T18:59:05.478Z,-0.19
2022-11-19T19:01:38.727Z,-0.21
2022-11-19T19:04:11.218Z,-0.23
2022-11-19T19:06:42.548Z,-0.21
2022-11-19T19:09:15.005Z,-0.19
2022-11-19T19:12:05.416Z,-0.19
2022-11-19T19:14:36.274Z,-0.19
2022-11-19T19:17:07.678Z,-0.16
2022-11-19T19:19:39.039Z,-0.15
2022-11-19T19:22:10.529Z,-0.13
2022-11-19T19:24:41.677Z,-0.11
2022-11-19T19:27:12.862Z,-0.17
2022-11-19T19:29:43.613Z,-0.18
2022-11-19T19:32:14.541Z,-0.15
2022-11-19T19:34:45.507Z,-0.10
2022-11-19T19:37:16.470Z,-0.11
2022-11-19T19:39:47.623Z,-0.12
2022-11-19T19:42:19.339Z,-0.10
2022-11-19T19:44:50.390Z,-0.13
2022-11-19T19:47:21.470Z,-0.12
2022-11-19T19:49:52.226Z,-0.09
2022-11-19T19:52:23.415Z,-0.10
2022-11-19T19:54:54.287Z,-0.09
2022-11-19T19:57:26.946Z,-0.08
2022-11-19T19:59:57.919Z,-0.06
2022-11-19T20:02:28.665Z,-0.06
2022-11-19T20:04:59.582Z,-0.05
2022-11-19T20:07:32.179Z,-0.10
2022-11-19T20:10:03.103Z,-0.13
2022-11-19T20:12:51.588Z,-0.12
2022-11-19T20:15:23.177Z,-0.14
2022-11-19T20:17:53.879Z,-0.15
2022-11-19T20:20:25.064Z,-0.13
2022-11-19T20:22:56.276Z,-0.17
2022-11-19T20:25:27.349Z,-0.18
2022-11-19T20:27:58.349Z,-0.18
2022-11-19T20:30:29.374Z,-0.11
2022-11-19T20:33:01.877Z,-0.03
2022-11-19T20:35:33.411Z,-0.05
2022-11-19T20:38:04.302Z,-0.07
2022-11-19T20:40:35.042Z,-0.08
2022-11-19T20:43:19.803Z,-0.07
2022-11-19T20:45:50.760Z,-0.07
2022-11-19T20:48:21.929Z,-0.06
2022-11-19T20:50:52.782Z,0.00
2022-11-19T20:53:24.372Z,-0.01
2022-11-19T20:56:05.047Z,0.03
2022-11-19T20:58:27.637Z,0.07
2022-11-19T21:01:02.722Z,0.08
2022-11-19T21:03:34.192Z,0.08
2022-11-19T21:06:06.747Z,0.08
2022-11-19T21:08:37.781Z,0.15
2022-11-19T21:11:12.795Z,0.10
2022-11-19T21:13:44.621Z,0.11
2022-11-19T21:16:17.004Z,0.13
2022-11-19T21:18:47.974Z,0.12
2022-11-19T21:21:19.613Z,0.12
2022-11-19T21:23:51.099Z,0.18
2022-11-19T21:26:23.117Z,0.19
2022-11-19T21:28:55.137Z,0.19
2022-11-19T21:31:33.969Z,0.20
2022-11-19T21:34:01.965Z,0.23
2022-11-19T21:36:32.985Z,0.25
2022-11-19T21:39:05.000Z,0.30
2022-11-19T21:41:36.551Z,0.29
2022-11-19T21:44:07.704Z,0.31
2022-11-19T21:46:39.642Z,0.31
2022-11-19T21:49:10.742Z,0.30
2022-11-19T21:51:41.795Z,0.31
2022-11-19T21:54:12.979Z,0.32
2022-11-19T21:56:44.491Z,0.32
2022-11-19T21:59:15.584Z,0.37
2022-11-19T22:01:49.274Z,0.36
2022-11-19T22:04:19.149Z,0.38
2022-11-19T22:06:50.019Z,0.39
2022-11-19T22:09:21.281Z,0.39
2022-11-19T22:11:52.543Z,0.39
2022-11-19T22:14:24.272Z,0.37
2022-11-19T22:16:55.258Z,0.37
2022-11-19T22:19:26.545Z,0.36
2022-11-19T22:22:00.672Z,0.33
2022-11-19T22:24:31.963Z,0.34
2022-11-19T22:27:15.657Z,0.33
2022-11-19T22:29:46.601Z,0.34
2022-11-19T22:32:18.275Z,0.35
2022-11-19T22:34:49.452Z,0.36
2022-11-19T22:37:20.362Z,0.34
2022-11-19T22:39:51.460Z,0.34
2022-11-19T22:42:22.783Z,0.35
2022-11-19T22:44:54.118Z,0.34
2022-11-19T22:47:25.543Z,0.35
2022-11-19T22:49:56.687Z,0.34
2022-11-19T22:52:27.819Z,0.35
2022-11-19T22:54:58.997Z,0.36
2022-11-19T22:57:32.096Z,0.36
2022-11-19T23:00:02.970Z,0.36
2022-11-19T23:02:35.392Z,0.33
2022-11-19T23:05:06.759Z,0.32
2022-11-19T23:07:37.813Z,0.31
2022-11-19T23:10:09.690Z,0.32
2022-11-19T23:12:59.253Z,0.33
2022-11-19T23:15:30.155Z,0.39
2022-11-19T23:18:00.968Z,0.34
2022-11-19T23:20:32.441Z,0.33
2022-11-19T23:23:03.848Z,0.34
2022-11-19T23:25:35.006Z,0.31
2022-11-19T23:28:05.928Z,0.30
2022-11-19T23:30:36.708Z,0.30
2022-11-19T23:33:07.859Z,0.28
2022-11-19T23:35:38.921Z,0.27
2022-11-19T23:38:10.147Z,0.29
2022-11-19T23:40:41.349Z,0.28
2022-11-19T23:43:12.402Z,0.28
2022-11-19T23:45:43.398Z,0.29
2022-11-19T23:48:14.509Z,0.29
2022-11-19T23:50:45.451Z,0.27
2022-11-19T23:53:16.617Z,0.26
2022-11-19T23:55:50.728Z,0.25
2022-11-19T23:58:21.755Z,0.27
